createdAt,value
2018-06-01T00:00:56.173Z,74.73
2018-06-01T00:01:56.165Z,75.11
2018-06-01T00:02:56.151Z,74.82
2018-06-01T00:03:56.555Z,74.30
2018-06-01T00:04:56.126Z,73.73
2018-06-01T00:05:56.169Z,73.44
2018-06-01T00:06:56.115Z,73.67
2018-06-01T00:07:56.403Z,73.35
2018-06-01T00:09:56.080Z,73.73
2018-06-01T00:10:56.073Z,73.92
2018-06-01T00:11:56.106Z,74.82
2018-06-01T00:12:56.045Z,74.34
2018-06-01T00:13:56.041Z,74.21
2018-06-01T00:14:56.031Z,73.44
2018-06-01T00:15:56.014Z,73.06
2018-06-01T00:16:56.009Z,72.86
2018-06-01T00:17:56.038Z,72.48
2018-06-01T00:18:56.188Z,72.09
2018-06-01T00:19:56.065Z,72.29
2018-06-01T00:20:55.954Z,72.09
2018-06-01T00:21:55.942Z,71.42
2018-06-01T00:22:55.973Z,71.14
2018-06-01T00:23:55.977Z,71.14
2018-06-01T00:24:56.018Z,70.84
2018-06-01T00:25:55.908Z,70.84
2018-06-01T00:26:55.894Z,71.14
2018-06-01T00:27:55.884Z,71.33
2018-06-01T00:28:55.871Z,71.26
2018-06-01T00:29:55.930Z,71.52
2018-06-01T00:30:55.847Z,71.91
2018-06-01T00:31:55.845Z,72.00
2018-06-01T00:32:55.823Z,71.71
2018-06-01T00:33:55.815Z,70.75
2018-06-01T00:34:55.802Z,71.14
2018-06-01T00:35:55.844Z,70.65
2018-06-01T00:36:55.895Z,70.56
2018-06-01T00:37:55.779Z,70.27
2018-06-01T00:38:55.768Z,69.60
2018-06-01T00:39:55.756Z,69.60
2018-06-01T00:40:55.745Z,69.21
2018-06-01T00:41:55.785Z,68.83
2018-06-01T00:42:55.764Z,68.15
2018-06-01T00:43:55.708Z,68.35
2018-06-01T00:44:55.703Z,67.38
2018-06-01T00:45:55.694Z,67.38
2018-06-01T00:46:56.163Z,67.48
2018-06-01T00:47:55.720Z,67.38
2018-06-01T00:48:55.654Z,67.10
2018-06-01T00:49:55.644Z,67.48
2018-06-01T00:50:55.637Z,67.00
2018-06-01T00:51:55.619Z,66.77
2018-06-01T00:52:56.317Z,66.39
2018-06-01T00:53:55.753Z,66.00
2018-06-01T00:54:55.605Z,66.20
2018-06-01T00:55:55.581Z,65.91
2018-06-01T00:56:55.569Z,66.00
2018-06-01T00:57:55.560Z,65.43
2018-06-01T00:58:55.539Z,65.53
2018-06-01T00:59:55.576Z,65.05
2018-06-01T01:00:55.553Z,65.14
2018-06-01T01:01:55.516Z,64.76
2018-06-01T01:02:55.507Z,64.85
2018-06-01T01:03:55.544Z,64.95
2018-06-01T01:04:55.482Z,65.14
2018-06-01T01:05:55.524Z,64.85
2018-06-01T01:06:55.472Z,65.05
2018-06-01T01:07:55.450Z,64.85
2018-06-01T01:08:55.446Z,64.95
2018-06-01T01:09:55.432Z,64.47
2018-06-01T01:10:55.421Z,64.66
2018-06-01T01:11:55.556Z,65.05
2018-06-01T01:12:55.386Z,64.85
2018-06-01T01:13:55.374Z,64.95
2018-06-01T01:14:55.367Z,64.76
2018-06-01T01:15:55.452Z,65.62
2018-06-01T01:16:55.346Z,64.76
2018-06-01T01:17:55.394Z,64.76
2018-06-01T01:18:55.428Z,64.56
2018-06-01T01:19:55.415Z,65.05
2018-06-01T01:20:55.303Z,64.95
2018-06-01T01:21:55.292Z,65.33
2018-06-01T01:22:55.288Z,65.62
2018-06-01T01:23:55.627Z,65.53
2018-06-01T01:24:55.261Z,64.66
2018-06-01T01:25:55.251Z,64.56
2018-06-01T01:26:55.238Z,64.56
2018-06-01T01:27:55.225Z,64.95
2018-06-01T01:28:55.224Z,64.76
2018-06-01T01:29:55.253Z,64.85
2018-06-01T01:30:55.188Z,64.66
2018-06-01T01:31:55.191Z,64.76
2018-06-01T01:32:55.177Z,64.85
2018-06-01T01:33:55.159Z,64.76
2018-06-01T01:34:55.139Z,64.95
2018-06-01T01:35:55.182Z,64.95
2018-06-01T01:36:55.125Z,65.14
2018-06-01T01:37:55.103Z,65.81
2018-06-01T01:38:55.505Z,65.72
2018-06-01T01:39:55.191Z,66.10
2018-06-01T01:40:55.179Z,66.30
2018-06-01T01:42:55.108Z,65.62
2018-06-01T01:43:55.049Z,65.81
2018-06-01T01:44:55.038Z,65.91
2018-06-01T01:45:55.061Z,65.23
2018-06-01T01:46:55.014Z,65.14
2018-06-01T01:47:55.006Z,64.76
2018-06-01T01:48:55.054Z,64.47
2018-06-01T01:49:54.983Z,64.09
2018-06-01T01:50:54.966Z,64.05
2018-06-01T01:52:54.944Z,63.32
2018-06-01T01:53:54.936Z,63.41
2018-06-01T01:54:54.983Z,62.93
2018-06-01T01:55:54.916Z,63.22
2018-06-01T01:56:54.900Z,63.60
2018-06-01T01:57:54.888Z,63.57
2018-06-01T01:58:54.982Z,63.60
2018-06-01T01:59:54.910Z,63.60
2018-06-01T02:00:54.912Z,62.99
2018-06-01T02:01:54.850Z,62.99
2018-06-01T02:02:54.838Z,63.19
2018-06-01T02:03:54.831Z,62.71
2018-06-01T02:04:54.809Z,63.28
2018-06-01T02:05:54.904Z,62.74
2018-06-01T02:06:54.896Z,62.81
2018-06-01T02:07:54.779Z,62.81
2018-06-01T02:08:54.768Z,63.28
2018-06-01T02:09:54.757Z,63.32
2018-06-01T02:10:54.751Z,62.81
2018-06-01T02:11:54.743Z,62.90
2018-06-01T02:12:54.771Z,63.28
2018-06-01T02:13:54.708Z,63.28
2018-06-01T02:14:54.779Z,63.22
2018-06-01T02:15:54.689Z,63.09
2018-06-01T02:16:54.676Z,62.52
2018-06-01T02:17:54.717Z,62.42
2018-06-01T02:18:54.704Z,63.19
2018-06-01T02:19:54.648Z,61.94
2018-06-01T02:20:54.667Z,62.90
2018-06-01T02:21:54.624Z,62.61
2018-06-01T02:22:54.611Z,62.71
2018-06-01T02:23:54.617Z,62.71
2018-06-01T02:24:54.642Z,62.61
2018-06-01T02:25:54.578Z,62.52
2018-06-01T02:26:54.572Z,63.09
2018-06-01T02:27:54.558Z,62.42
2018-06-01T02:28:54.592Z,62.04
2018-06-01T02:29:54.531Z,62.42
2018-06-01T02:30:54.569Z,61.75
2018-06-01T02:31:54.512Z,61.08
2018-06-01T02:32:54.497Z,61.55
2018-06-01T02:33:54.495Z,60.50
2018-06-01T02:34:54.547Z,60.21
2018-06-01T02:35:54.466Z,59.92
2018-06-01T02:36:54.507Z,59.64
2018-06-01T02:37:54.442Z,59.73
2018-06-01T02:38:54.419Z,59.54
2018-06-01T02:39:54.415Z,59.73
2018-06-01T02:40:54.416Z,59.54
2018-06-01T02:41:54.497Z,59.64
2018-06-01T02:42:54.439Z,59.44
2018-06-01T02:43:54.363Z,59.44
2018-06-01T02:44:54.358Z,60.40
2018-06-01T02:45:54.353Z,60.02
2018-06-01T02:46:54.339Z,59.83
2018-06-01T02:47:54.321Z,60.11
2018-06-01T02:48:54.367Z,59.64
2018-06-01T02:49:54.407Z,59.22
2018-06-01T02:50:54.333Z,58.67
2018-06-01T02:51:54.279Z,58.00
2018-06-01T02:52:54.267Z,59.25
2018-06-01T02:53:54.252Z,58.96
2018-06-01T02:54:54.293Z,59.12
2018-06-01T02:55:54.281Z,58.84
2018-06-01T02:56:54.223Z,59.22
2018-06-01T02:57:54.221Z,57.97
2018-06-01T02:58:54.199Z,57.59
2018-06-01T02:59:54.203Z,57.43
2018-06-01T03:00:54.227Z,57.59
2018-06-01T03:01:54.168Z,57.11
2018-06-01T03:02:54.157Z,57.14
2018-06-01T03:03:54.146Z,56.56
2018-06-01T03:04:54.235Z,57.01
2018-06-01T03:05:54.167Z,56.46
2018-06-01T03:06:54.155Z,56.15
2018-06-01T03:07:54.095Z,56.53
2018-06-01T03:08:54.085Z,56.24
2018-06-01T03:09:54.082Z,56.44
2018-06-01T03:11:54.154Z,56.05
2018-06-01T03:12:54.089Z,56.08
2018-06-01T03:13:54.025Z,56.24
2018-06-01T03:14:54.023Z,55.86
2018-06-01T03:15:54.018Z,55.96
2018-06-01T03:16:53.988Z,55.96
2018-06-01T03:17:53.985Z,56.44
2018-06-01T03:18:54.018Z,56.53
2018-06-01T03:19:54.053Z,56.44
2018-06-01T03:20:53.943Z,56.92
2018-06-01T03:21:53.931Z,56.34
2018-06-01T03:22:53.930Z,56.73
2018-06-01T03:23:53.909Z,56.82
2018-06-01T03:24:53.950Z,56.82
2018-06-01T03:25:53.892Z,56.53
2018-06-01T03:26:53.879Z,56.63
2018-06-01T03:27:53.866Z,57.68
2018-06-01T03:28:53.953Z,58.17
2018-06-01T03:29:53.842Z,57.97
2018-06-01T03:30:53.973Z,57.97
2018-06-01T03:31:53.819Z,57.81
2018-06-01T03:32:53.802Z,57.97
2018-06-01T03:33:54.086Z,58.36
2018-06-01T03:34:53.784Z,58.26
2018-06-01T03:35:53.764Z,58.10
2018-06-01T03:36:53.814Z,58.07
2018-06-01T03:37:53.751Z,57.59
2018-06-01T03:38:53.741Z,57.40
2018-06-01T03:39:53.738Z,57.50
2018-06-01T03:40:53.717Z,57.30
2018-06-01T03:41:53.712Z,56.53
2018-06-01T03:42:53.744Z,56.63
2018-06-01T03:43:53.683Z,57.30
2018-06-01T03:44:53.662Z,56.95
2018-06-01T03:45:53.673Z,56.56
2018-06-01T03:46:53.650Z,57.23
2018-06-01T03:47:53.630Z,57.14
2018-06-01T03:48:53.665Z,57.71
2018-06-01T03:49:53.707Z,57.33
2018-06-01T03:50:53.596Z,57.71
2018-06-01T03:51:53.590Z,57.62
2018-06-01T03:52:53.591Z,57.81
2018-06-01T03:53:53.569Z,57.90
2018-06-01T03:54:53.618Z,58.77
2018-06-01T03:55:53.537Z,59.34
2018-06-01T03:56:53.527Z,59.16
2018-06-01T03:57:53.545Z,59.16
2018-06-01T03:58:54.006Z,59.73
2018-06-01T03:59:53.499Z,60.98
2018-06-01T04:00:53.544Z,60.60
2018-06-01T04:01:53.472Z,61.17
2018-06-01T04:02:53.490Z,60.60
2018-06-01T04:03:53.461Z,61.17
2018-06-01T04:04:53.440Z,61.84
2018-06-01T04:05:53.545Z,61.46
2018-06-01T04:06:53.465Z,61.65
2018-06-01T04:07:53.400Z,61.84
2018-06-01T04:08:53.401Z,61.84
2018-06-01T04:09:53.385Z,62.42
2018-06-01T04:10:53.378Z,62.04
2018-06-01T04:11:53.354Z,61.75
2018-06-01T04:12:53.810Z,61.94
2018-06-01T04:13:53.338Z,62.52
2018-06-01T04:14:53.424Z,62.99
2018-06-01T04:15:53.320Z,62.90
2018-06-01T04:16:53.305Z,62.99
2018-06-01T04:17:53.297Z,62.90
2018-06-01T04:18:53.456Z,62.90
2018-06-01T04:19:53.323Z,62.99
2018-06-01T04:20:53.263Z,62.16
2018-06-01T04:21:53.309Z,61.94
2018-06-01T04:22:53.336Z,63.09
2018-06-01T04:23:53.227Z,62.71
2018-06-01T04:24:53.273Z,62.42
2018-06-01T04:25:53.204Z,63.02
2018-06-01T04:26:53.197Z,62.52
2018-06-01T04:27:53.202Z,64.18
2018-06-01T04:28:53.335Z,62.93
2018-06-01T04:29:53.176Z,63.22
2018-06-01T04:30:53.224Z,63.22
2018-06-01T04:31:53.334Z,63.70
2018-06-01T04:32:53.188Z,64.37
2018-06-01T04:33:53.154Z,65.14
2018-06-01T04:34:53.102Z,65.91
2018-06-01T04:35:53.100Z,67.64
2018-06-01T04:36:53.232Z,67.54
2018-06-01T04:37:53.320Z,68.51
2018-06-01T04:39:53.050Z,70.65
2018-06-01T04:40:53.040Z,70.84
2018-06-01T04:41:53.524Z,70.27
2018-06-01T04:42:53.084Z,70.46
2018-06-01T04:43:53.019Z,71.23
2018-06-01T04:44:52.998Z,71.33
2018-06-01T04:45:52.981Z,72.96
2018-06-01T04:46:52.970Z,72.58
2018-06-01T04:47:52.971Z,73.00
2018-06-01T04:48:53.000Z,71.94
2018-06-01T04:49:53.039Z,72.61
2018-06-01T04:50:52.925Z,73.00
2018-06-01T04:51:52.924Z,74.34
2018-06-01T04:52:52.908Z,75.31
2018-06-01T04:53:52.993Z,75.24
2018-06-01T04:54:52.935Z,76.59
2018-06-01T04:55:53.239Z,77.36
2018-06-01T04:56:53.162Z,77.26
2018-06-01T04:57:53.143Z,77.94
2018-06-01T04:58:53.171Z,79.28
2018-06-01T04:59:53.932Z,78.75
2018-06-01T05:00:53.251Z,80.19
2018-06-01T05:01:52.869Z,82.89
2018-06-01T05:02:52.804Z,82.70
2018-06-01T05:03:52.894Z,85.20
2018-06-01T05:04:52.914Z,86.21
2018-06-01T05:05:52.911Z,87.55
2018-06-01T05:06:52.979Z,86.88
2018-06-01T05:07:52.760Z,87.21
2018-06-01T05:08:52.741Z,87.50
2018-06-01T05:09:52.729Z,89.91
2018-06-01T05:10:52.719Z,89.33
2018-06-01T05:11:52.704Z,89.72
2018-06-01T05:12:52.756Z,89.53
2018-06-01T05:13:52.831Z,91.45
2018-06-01T05:14:52.706Z,90.78
2018-06-01T05:15:52.725Z,92.32
2018-06-01T05:16:52.657Z,91.26
2018-06-01T05:17:52.652Z,89.14
2018-06-01T05:18:52.706Z,89.23
2018-06-01T05:19:52.629Z,93.28
2018-06-01T05:20:52.627Z,92.90
2018-06-01T05:21:52.613Z,93.76
2018-06-01T05:22:52.609Z,91.83
2018-06-01T05:23:52.586Z,90.48
2018-06-01T05:24:52.632Z,92.22
2018-06-01T05:25:52.575Z,90.20
2018-06-01T05:26:52.570Z,91.26
2018-06-01T05:28:52.539Z,89.81
2018-06-01T05:29:52.531Z,89.43
2018-06-01T05:30:52.629Z,90.58
2018-06-01T05:31:52.512Z,90.20
2018-06-01T05:32:52.503Z,89.33
2018-06-01T05:33:52.497Z,90.68
2018-06-01T05:34:52.490Z,90.68
2018-06-01T05:35:52.473Z,93.19
2018-06-01T05:36:52.514Z,92.61
2018-06-01T05:37:52.767Z,91.30
2018-06-01T05:38:52.501Z,93.71
2018-06-01T05:39:52.448Z,92.08
2018-06-01T05:40:52.433Z,93.91
2018-06-01T05:41:52.437Z,94.78
2018-06-01T05:42:52.511Z,93.48
2018-06-01T05:43:52.402Z,93.52
2018-06-01T05:44:52.398Z,93.71
2018-06-01T05:45:52.385Z,92.94
2018-06-01T05:46:52.379Z,95.64
2018-06-01T05:47:52.373Z,95.74
2018-06-01T05:48:52.407Z,94.68
2018-06-01T05:49:52.348Z,95.11
2018-06-01T05:50:52.337Z,96.17
2018-06-01T05:51:52.334Z,97.91
2018-06-01T05:52:52.370Z,98.39
2018-06-01T05:53:52.307Z,97.42
2018-06-01T05:54:52.347Z,96.66
2018-06-01T05:55:52.293Z,95.59
2018-06-01T05:56:52.385Z,99.99
2018-06-01T05:57:52.335Z,99.60
2018-06-01T05:58:52.265Z,97.77
2018-06-01T05:59:52.270Z,97.57
2018-06-01T06:00:52.344Z,98.15
2018-06-01T06:01:52.230Z,97.47
2018-06-01T06:02:52.228Z,98.15
2018-06-01T06:03:52.211Z,98.25
2018-06-01T06:04:52.202Z,99.21
2018-06-01T06:05:52.192Z,99.99
2018-06-01T06:06:52.388Z,98.25
2018-06-01T06:07:52.191Z,99.99
2018-06-01T06:08:52.223Z,99.11
2018-06-01T06:09:52.163Z,98.63
2018-06-01T06:10:52.158Z,99.31
2018-06-01T06:11:52.138Z,99.99
2018-06-01T06:12:52.174Z,99.84
2018-06-01T06:13:52.219Z,98.58
2018-06-01T06:14:52.123Z,99.07
2018-06-01T06:15:52.113Z,99.99
2018-06-01T06:16:52.097Z,99.07
2018-06-01T06:17:52.154Z,96.94
2018-06-01T06:18:52.178Z,98.30
2018-06-01T06:19:52.134Z,97.91
2018-06-01T06:20:52.077Z,97.91
2018-06-01T06:21:52.056Z,97.14
2018-06-01T06:22:52.042Z,97.47
2018-06-01T06:23:52.037Z,98.93
2018-06-01T06:24:52.076Z,98.63
2018-06-01T06:25:52.020Z,96.70
2018-06-01T06:26:52.009Z,96.51
2018-06-01T06:27:52.009Z,98.44
2018-06-01T06:28:52.012Z,98.44
2018-06-01T06:29:51.993Z,97.57
2018-06-01T06:30:52.084Z,98.83
2018-06-01T06:31:51.968Z,98.44
2018-06-01T06:32:51.966Z,98.68
2018-06-01T06:33:51.954Z,98.58
2018-06-01T06:34:51.952Z,99.55
2018-06-01T06:35:51.936Z,99.74
2018-06-01T06:36:51.975Z,98.97
2018-06-01T06:37:51.918Z,98.78
2018-06-01T06:38:51.914Z,99.99
2018-06-01T06:39:51.902Z,99.60
2018-06-01T06:40:51.907Z,99.21
2018-06-01T06:41:51.902Z,99.21
2018-06-01T06:42:51.932Z,98.93
2018-06-01T06:43:51.874Z,99.11
2018-06-01T06:44:51.871Z,99.89
2018-06-01T06:45:51.857Z,99.21
2018-06-01T06:46:51.863Z,98.83
2018-06-01T06:47:51.842Z,99.41
2018-06-01T06:48:51.885Z,99.07
2018-06-01T06:49:51.836Z,99.65
2018-06-01T06:50:51.816Z,99.46
2018-06-01T06:51:51.808Z,99.26
2018-06-01T06:52:51.805Z,99.16
2018-06-01T06:53:51.813Z,99.99
2018-06-01T06:54:51.835Z,99.65
2018-06-01T06:55:51.778Z,98.97
2018-06-01T06:56:51.780Z,98.73
2018-06-01T06:57:51.765Z,98.93
2018-06-01T06:58:51.782Z,99.41
2018-06-01T06:59:51.757Z,99.02
2018-06-01T07:00:51.793Z,98.73
2018-06-01T07:01:51.753Z,99.94
2018-06-01T07:02:51.728Z,98.49
2018-06-01T07:03:51.737Z,99.36
2018-06-01T07:04:51.722Z,98.97
2018-06-01T07:05:51.711Z,98.58
2018-06-01T07:06:51.753Z,99.07
2018-06-01T07:07:51.745Z,98.58
2018-06-01T07:08:51.699Z,98.78
2018-06-01T07:09:51.689Z,98.93
2018-06-01T07:10:51.676Z,98.73
2018-06-01T07:11:51.664Z,98.93
2018-06-01T07:12:51.710Z,98.35
2018-06-01T07:13:51.664Z,97.33
2018-06-01T07:14:51.698Z,98.78
2018-06-01T07:15:51.646Z,96.75
2018-06-01T07:16:51.630Z,96.94
2018-06-01T07:17:51.628Z,95.78
2018-06-01T07:18:51.679Z,96.84
2018-06-01T07:19:51.614Z,96.17
2018-06-01T07:20:51.605Z,96.26
2018-06-01T07:21:51.594Z,96.45
2018-06-01T07:22:51.590Z,96.26
2018-06-01T07:23:51.677Z,96.75
2018-06-01T07:24:51.944Z,97.03
2018-06-01T07:25:51.573Z,97.91
2018-06-01T07:26:51.560Z,97.67
2018-06-01T07:27:51.562Z,96.70
2018-06-01T07:28:51.560Z,95.63
2018-06-01T07:29:51.545Z,96.41
2018-06-01T07:30:51.910Z,95.83
2018-06-01T07:31:51.544Z,96.60
2018-06-01T07:32:51.528Z,94.76
2018-06-01T07:33:51.529Z,95.25
2018-06-01T07:34:51.519Z,94.76
2018-06-01T07:35:51.505Z,93.50
2018-06-01T07:36:51.553Z,93.21
2018-06-01T07:37:51.505Z,91.95
2018-06-01T07:38:52.397Z,91.56
2018-06-01T07:39:51.476Z,93.84
2018-06-01T07:40:51.466Z,90.44
2018-06-01T07:41:51.464Z,94.03
2018-06-01T07:42:51.504Z,91.41
2018-06-01T07:43:51.456Z,90.48
2018-06-01T07:44:51.450Z,89.23
2018-06-01T07:45:51.488Z,88.55
2018-06-01T07:46:51.468Z,87.58
2018-06-01T07:47:51.433Z,89.27
2018-06-01T07:48:51.770Z,85.19
2018-06-01T07:49:51.414Z,86.60
2018-06-01T07:50:51.453Z,80.13
2018-06-01T07:51:51.410Z,78.81
2018-06-01T07:52:51.656Z,79.49
2018-06-01T07:53:51.386Z,83.47
2018-06-01T07:54:51.741Z,75.21
2018-06-01T07:55:51.376Z,78.66
2018-06-01T07:56:51.373Z,80.02
2018-06-01T07:57:51.359Z,84.58
2018-06-01T07:58:51.357Z,79.96
2018-06-01T07:59:51.353Z,82.58
2018-06-01T08:00:51.695Z,78.53
2018-06-01T08:01:51.340Z,74.35
2018-06-01T08:02:51.341Z,72.70
2018-06-01T08:03:51.333Z,76.10
2018-06-01T08:04:51.399Z,76.40
2018-06-01T08:05:51.601Z,78.30
2018-06-01T08:06:51.758Z,74.71
2018-06-01T08:07:51.307Z,73.54
2018-06-01T08:08:51.375Z,73.73
2018-06-01T08:09:51.303Z,75.68
2018-06-01T08:10:51.305Z,79.80
2018-06-01T08:11:51.290Z,74.84
2018-06-01T08:12:51.639Z,72.60
2018-06-01T08:13:51.290Z,70.65
2018-06-01T08:14:51.395Z,73.51
2018-06-01T08:15:51.283Z,80.04
2018-06-01T08:16:51.278Z,74.00
2018-06-01T08:17:51.275Z,68.51
2018-06-01T08:18:51.618Z,69.87
2018-06-01T08:19:51.261Z,71.82
2018-06-01T08:20:51.252Z,74.45
2018-06-01T08:21:51.246Z,73.18
2018-06-01T08:22:51.253Z,75.78
2018-06-01T08:23:51.244Z,78.59
2018-06-01T08:24:51.590Z,72.83
2018-06-01T08:25:51.237Z,68.35
2018-06-01T08:26:51.237Z,67.15
2018-06-01T08:27:51.235Z,71.04
2018-06-01T08:28:51.222Z,69.74
2018-06-01T08:29:51.224Z,70.36
2018-06-01T08:30:51.570Z,68.80
2018-06-01T08:31:51.254Z,70.26
2018-06-01T08:32:51.208Z,70.10
2018-06-01T08:33:51.254Z,70.30
2018-06-01T08:34:51.216Z,67.54
2018-06-01T08:35:51.203Z,69.87
2018-06-01T08:36:51.553Z,72.66
2018-06-01T08:37:51.200Z,78.44
2018-06-01T08:38:51.199Z,74.06
2018-06-01T08:39:51.241Z,72.99
2018-06-01T08:40:51.186Z,76.59
2018-06-01T08:41:51.189Z,72.34
2018-06-01T08:42:51.224Z,67.67
2018-06-01T08:43:51.740Z,64.78
2018-06-01T08:44:51.175Z,69.78
2018-06-01T08:45:51.300Z,72.43
2018-06-01T08:46:51.166Z,75.45
2018-06-01T08:47:51.186Z,75.25
2018-06-01T08:48:51.265Z,76.67
2018-06-01T08:49:51.161Z,78.87
2018-06-01T08:50:51.210Z,81.20
2018-06-01T08:51:51.151Z,81.78
2018-06-01T08:52:51.161Z,84.41
2018-06-01T08:53:51.442Z,84.50
2018-06-01T08:54:51.192Z,87.12
2018-06-01T08:55:51.147Z,84.50
2018-06-01T08:56:51.143Z,83.39
2018-06-01T08:57:51.140Z,85.72
2018-06-01T08:58:51.133Z,87.72
2018-06-01T08:59:51.123Z,88.40
2018-06-01T09:00:51.173Z,88.59
2018-06-01T09:01:51.118Z,88.93
2018-06-01T09:02:51.108Z,88.84
2018-06-01T09:03:51.106Z,89.76
2018-06-01T09:04:51.401Z,91.71
2018-06-01T09:05:51.094Z,93.50
2018-06-01T09:06:51.142Z,94.95
2018-06-01T09:07:51.106Z,95.20
2018-06-01T09:08:51.082Z,95.97
2018-06-01T09:09:51.098Z,96.26
2018-06-01T09:10:51.374Z,96.45
2018-06-01T09:11:51.066Z,97.18
2018-06-01T09:12:51.112Z,96.89
2018-06-01T09:13:51.060Z,98.10
2018-06-01T09:14:51.061Z,98.05
2018-06-01T09:15:51.050Z,98.05
2018-06-01T09:16:51.087Z,98.49
2018-06-01T09:17:51.042Z,98.20
2018-06-01T09:18:51.078Z,97.42
2018-06-01T09:19:51.021Z,98.39
2018-06-01T09:20:51.018Z,98.39
2018-06-01T09:21:51.024Z,97.42
2018-06-01T09:22:51.019Z,98.30
2018-06-01T09:23:51.021Z,98.20
2018-06-01T09:24:51.044Z,97.13
2018-06-01T09:25:50.984Z,98.10
2018-06-01T09:26:50.980Z,98.20
2018-06-01T09:27:50.971Z,98.00
2018-06-01T09:28:51.271Z,96.94
2018-06-01T09:29:50.958Z,98.00
2018-06-01T09:30:51.002Z,97.04
2018-06-01T09:31:50.951Z,98.39
2018-06-01T09:32:50.991Z,97.18
2018-06-01T09:33:51.330Z,96.99
2018-06-01T09:34:50.924Z,99.89
2018-06-01T09:35:50.923Z,96.89
2018-06-01T09:36:50.961Z,98.93
2018-06-01T09:37:50.905Z,98.44
2018-06-01T09:38:50.898Z,98.49
2018-06-01T09:39:50.895Z,98.58
2018-06-01T09:40:50.883Z,98.10
2018-06-01T09:41:51.182Z,97.91
2018-06-01T09:42:51.072Z,97.77
2018-06-01T09:43:51.347Z,96.80
2018-06-01T09:44:50.859Z,96.60
2018-06-01T09:45:50.851Z,95.15
2018-06-01T09:46:50.851Z,95.93
2018-06-01T09:47:51.137Z,96.02
2018-06-01T09:48:50.875Z,95.06
2018-06-01T09:49:50.819Z,95.25
2018-06-01T09:50:50.811Z,95.06
2018-06-01T09:51:50.809Z,95.44
2018-06-01T09:52:50.803Z,94.82
2018-06-01T09:53:51.410Z,94.62
2018-06-01T09:54:51.865Z,94.72
2018-06-01T09:55:51.003Z,93.95
2018-06-01T09:56:51.008Z,92.30
2018-06-01T09:57:50.942Z,91.91
2018-06-01T09:58:50.765Z,93.99
2018-06-01T09:59:50.801Z,92.25
2018-06-01T10:00:50.792Z,91.00
2018-06-01T10:01:50.735Z,92.45
2018-06-01T10:02:50.721Z,90.81
2018-06-01T10:03:50.731Z,91.97
2018-06-01T10:04:50.706Z,91.15
2018-06-01T10:05:50.715Z,89.31
2018-06-01T10:06:50.746Z,89.31
2018-06-01T10:07:50.686Z,88.73
2018-06-01T10:08:50.687Z,89.22
2018-06-01T10:09:50.668Z,87.38
2018-06-01T10:10:50.684Z,87.48
2018-06-01T10:11:50.655Z,86.96
2018-06-01T10:12:50.697Z,86.61
2018-06-01T10:13:50.644Z,87.58
2018-06-01T10:14:50.635Z,86.03
2018-06-01T10:15:50.888Z,85.84
2018-06-01T10:16:50.655Z,87.09
2018-06-01T10:17:50.916Z,85.06
2018-06-01T10:18:50.660Z,87.48
2018-06-01T10:19:50.597Z,87.87
2018-06-01T10:20:50.585Z,84.68
2018-06-01T10:21:50.625Z,85.64
2018-06-01T10:22:50.563Z,87.09
2018-06-01T10:23:50.892Z,86.13
2018-06-01T10:24:50.607Z,89.12
2018-06-01T10:25:50.591Z,85.74
2018-06-01T10:26:50.532Z,86.90
2018-06-01T10:27:50.528Z,84.68
2018-06-01T10:28:50.524Z,87.87
2018-06-01T10:29:50.507Z,87.19
2018-06-01T10:30:50.564Z,87.19
2018-06-01T10:31:50.496Z,87.77
2018-06-01T10:32:50.484Z,85.64
2018-06-01T10:33:50.476Z,84.58
2018-06-01T10:34:50.461Z,86.03
2018-06-01T10:35:50.465Z,84.10
2018-06-01T10:36:50.501Z,88.64
2018-06-01T10:37:50.441Z,85.74
2018-06-01T10:38:50.471Z,85.84
2018-06-01T10:39:50.422Z,86.80
2018-06-01T10:40:50.734Z,85.26
2018-06-01T10:41:50.406Z,84.20
2018-06-01T10:42:50.446Z,87.00
2018-06-01T10:43:50.391Z,89.70
2018-06-01T10:44:50.382Z,88.54
2018-06-01T10:45:50.386Z,87.77
2018-06-01T10:46:50.371Z,88.83
2018-06-01T10:47:50.355Z,88.73
2018-06-01T10:48:50.395Z,88.64
2018-06-01T10:49:50.372Z,85.16
2018-06-01T10:50:50.328Z,86.22
2018-06-01T10:51:50.322Z,89.84
2018-06-01T10:52:50.615Z,88.73
2018-06-01T10:53:50.306Z,88.93
2018-06-01T10:54:50.447Z,86.52
2018-06-01T10:55:50.291Z,85.78
2018-06-01T10:56:50.289Z,88.49
2018-06-01T10:57:50.271Z,89.45
2018-06-01T10:58:50.573Z,91.87
2018-06-01T10:59:50.261Z,91.09
2018-06-01T11:00:50.302Z,87.13
2018-06-01T11:01:50.252Z,88.39
2018-06-01T11:02:50.250Z,90.61
2018-06-01T11:03:50.222Z,91.72
2018-06-01T11:04:50.523Z,91.14
2018-06-01T11:05:50.204Z,90.66
2018-06-01T11:06:50.255Z,90.75
2018-06-01T11:07:50.187Z,91.91
2018-06-01T11:08:51.511Z,91.05
2018-06-01T11:09:50.187Z,93.27
2018-06-01T11:10:50.466Z,90.47
2018-06-01T11:11:50.155Z,92.11
2018-06-01T11:12:50.198Z,89.98
2018-06-01T11:13:50.148Z,90.70
2018-06-01T11:14:50.143Z,90.90
2018-06-01T11:15:50.123Z,94.67
2018-06-01T11:16:50.124Z,93.70
2018-06-01T11:17:50.161Z,92.06
2018-06-01T11:18:50.149Z,90.32
2018-06-01T11:19:50.097Z,92.20
2018-06-01T11:20:50.163Z,93.17
2018-06-01T11:21:50.084Z,92.54
2018-06-01T11:22:50.068Z,93.21
2018-06-01T11:23:50.059Z,98.05
2018-06-01T11:24:50.103Z,96.60
2018-06-01T11:25:50.047Z,95.44
2018-06-01T11:26:50.036Z,96.41
2018-06-01T11:27:50.132Z,94.32
2018-06-01T11:28:50.082Z,97.23
2018-06-01T11:29:50.020Z,96.75
2018-06-01T11:30:50.056Z,96.84
2018-06-01T11:31:50.002Z,97.13
2018-06-01T11:32:49.994Z,96.75
2018-06-01T11:33:50.300Z,98.20
2018-06-01T11:34:50.035Z,98.00
2018-06-01T11:35:49.979Z,97.28
2018-06-01T11:36:50.020Z,98.15
2018-06-01T11:37:49.958Z,97.47
2018-06-01T11:38:49.950Z,97.86
2018-06-01T11:39:49.944Z,96.36
2018-06-01T11:40:50.306Z,97.91
2018-06-01T11:41:49.933Z,97.13
2018-06-01T11:42:49.980Z,97.57
2018-06-01T11:43:49.924Z,96.99
2018-06-01T11:44:49.928Z,96.89
2018-06-01T11:45:49.955Z,97.23
2018-06-01T11:46:49.905Z,97.52
2018-06-01T11:47:49.901Z,97.28
2018-06-01T11:48:49.952Z,97.08
2018-06-01T11:49:49.883Z,95.64
2018-06-01T11:50:50.191Z,98.10
2018-06-01T11:51:53.029Z,97.86
2018-06-01T11:52:49.902Z,97.47
2018-06-01T11:53:49.868Z,97.18
2018-06-01T11:55:49.900Z,98.05
2018-06-01T11:56:49.838Z,97.18
2018-06-01T11:57:49.834Z,97.23
2018-06-01T11:58:49.833Z,97.23
2018-06-01T11:59:49.829Z,97.47
2018-06-01T12:00:49.818Z,97.91
2018-06-01T12:01:49.891Z,96.89
2018-06-01T12:02:49.799Z,96.99
2018-06-01T12:03:51.294Z,97.28
2018-06-01T12:06:49.878Z,97.71
2018-06-01T12:07:49.841Z,98.39
2018-06-01T12:08:49.791Z,97.42
2018-06-01T12:09:49.844Z,98.00
2018-06-01T12:10:49.772Z,98.30
2018-06-01T12:11:49.745Z,97.91
2018-06-01T12:12:49.741Z,97.62
2018-06-01T12:13:49.788Z,98.58
2018-06-01T12:14:49.813Z,97.91
2018-06-01T12:15:49.903Z,97.57
2018-06-01T12:16:49.712Z,97.28
2018-06-01T12:17:49.735Z,98.05
2018-06-01T12:19:49.873Z,96.45
2018-06-01T12:20:49.708Z,98.39
2018-06-01T12:21:49.703Z,97.33
2018-06-01T12:22:49.993Z,98.10
2018-06-01T12:23:49.788Z,97.33
2018-06-01T12:24:49.673Z,97.96
2018-06-01T12:25:49.728Z,97.28
2018-06-01T12:26:49.665Z,97.86
2018-06-01T12:27:49.659Z,97.18
2018-06-01T12:28:49.645Z,97.38
2018-06-01T12:29:49.747Z,98.63
2018-06-01T12:30:49.632Z,98.54
2018-06-01T12:31:49.677Z,98.10
2018-06-01T12:32:49.622Z,97.42
2018-06-01T12:33:49.625Z,97.91
2018-06-01T12:34:49.609Z,97.13
2018-06-01T12:35:49.605Z,97.52
2018-06-01T12:36:49.606Z,98.10
2018-06-01T12:37:50.087Z,97.13
2018-06-01T12:38:49.583Z,97.03
2018-06-01T12:39:49.997Z,98.49
2018-06-01T12:40:50.142Z,97.33
2018-06-01T12:41:49.564Z,97.52
2018-06-01T12:42:49.564Z,97.52
2018-06-01T12:43:49.657Z,97.76
2018-06-01T12:44:49.577Z,97.42
2018-06-01T12:45:49.543Z,97.91
2018-06-01T12:46:49.835Z,97.62
2018-06-01T12:47:49.531Z,97.81
2018-06-01T12:48:49.523Z,97.38
2018-06-01T12:49:49.569Z,97.86
2018-06-01T12:50:49.533Z,96.80
2018-06-01T12:51:49.504Z,97.18
2018-06-01T12:52:49.505Z,97.23
2018-06-01T12:53:49.493Z,97.42
2018-06-01T12:54:49.485Z,96.36
2018-06-01T12:55:49.761Z,95.92
2018-06-01T12:56:49.537Z,96.41
2018-06-01T12:57:49.471Z,96.98
2018-06-01T12:58:49.771Z,97.13
2018-06-01T12:59:49.455Z,95.29
2018-06-01T13:00:49.505Z,95.97
2018-06-01T13:01:49.492Z,95.87
2018-06-01T13:02:49.442Z,95.00